Time;durP1;ratioP1;P1;durP2;ratioP2;P2;SDS_P1;SDS_P2;PMS_P1;PMS_P2;Temp;Humidity;BMP_temperature;BMP_pressure;BME280_temperature;BME280_humidity;BME280_pressure;Samples;Min_cycle;Max_cycle;Signal;HPM_P1;HPM_P2
2023/12/20 00:01:49;;;;;;;1.70;1.60;;;;;;;;;;5062724;28;20215;-66
2023/12/20 00:04:16;;;;;;;1.58;1.48;;;;;;;;;;5060249;28;20205;-65
2023/12/20 00:06:44;;;;;;;1.42;1.33;;;;;;;;;;5060408;28;20598;-65
2023/12/20 00:09:12;;;;;;;1.65;1.55;;;;;;;;;;5076648;28;20285;-66
2023/12/20 00:11:41;;;;;;;1.60;1.50;;;;;;;;;;5063107;28;20492;-66
2023/12/20 00:14:09;;;;;;;1.40;1.30;;;;;;;;;;5060146;28;20531;-65
2023/12/20 00:16:38;;;;;;;1.45;1.35;;;;;;;;;;5059769;28;20205;-65
2023/12/20 00:19:05;;;;;;;1.40;1.30;;;;;;;;;;5060426;28;20224;-65
2023/12/20 00:21:33;;;;;;;1.40;1.30;;;;;;;;;;5060095;28;20371;-66
2023/12/20 00:24:01;;;;;;;1.30;1.20;;;;;;;;;;5059762;28;20802;-65
2023/12/20 00:26:29;;;;;;;1.30;1.20;;;;;;;;;;5060478;28;20258;-65
2023/12/20 00:28:56;;;;;;;1.20;1.10;;;;;;;;;;5060057;28;20308;-65
2023/12/20 00:31:24;;;;;;;1.45;1.35;;;;;;;;;;5060356;28;20197;-65
2023/12/20 00:33:53;;;;;;;1.30;1.20;;;;;;;;;;5059949;28;20255;-65
2023/12/20 00:36:21;;;;;;;1.20;1.10;;;;;;;;;;5059803;28;20205;-65
2023/12/20 00:38:48;;;;;;;1.15;1.05;;;;;;;;;;5057680;28;20308;-66
2023/12/20 00:41:15;;;;;;;1.08;1.02;;;;;;;;;;5040088;28;20229;-65
2023/12/20 00:43:44;;;;;;;1.20;1.10;;;;;;;;;;5040318;28;20206;-65
2023/12/20 00:46:11;;;;;;;1.40;1.30;;;;;;;;;;5040319;28;20244;-65
2023/12/20 00:48:41;;;;;;;1.20;1.10;;;;;;;;;;5040181;28;20228;-66
2023/12/20 00:51:11;;;;;;;1.20;1.10;;;;;;;;;;5039911;28;20572;-66
2023/12/20 00:53:38;;;;;;;1.13;1.00;;;;;;;;;;5039741;28;20240;-65
2023/12/20 00:56:06;;;;;;;1.10;1.00;;;;;;;;;;5039676;28;20249;-65
2023/12/20 00:58:33;;;;;;;1.23;1.13;;;;;;;;;;5039628;28;20244;-66
2023/12/20 01:01:01;;;;;;;1.10;1.00;;;;;;;;;;5039614;28;20295;-65
2023/12/20 01:03:29;;;;;;;1.00;1.00;;;;;;;;;;5039839;28;20205;-65
2023/12/20 01:05:56;;;;;;;1.30;1.20;;;;;;;;;;5039643;28;20259;-66
2023/12/20 01:08:25;;;;;;;1.20;1.10;;;;;;;;;;5039861;28;20603;-66
2023/12/20 01:10:53;;;;;;;1.08;0.98;;;;;;;;;;5039756;28;20237;-65
2023/12/20 01:13:20;;;;;;;1.00;1.00;;;;;;;;;;5040028;28;20240;-65
2023/12/20 01:15:48;;;;;;;1.00;1.00;;;;;;;;;;5039465;28;20205;-66
2023/12/20 01:18:16;;;;;;;0.82;0.82;;;;;;;;;;5039438;28;20259;-66
2023/12/20 01:20:43;;;;;;;0.90;0.90;;;;;;;;;;5038888;28;20235;-65
2023/12/20 01:23:11;;;;;;;0.93;0.90;;;;;;;;;;5039676;28;20249;-65
2023/12/20 01:25:41;;;;;;;0.70;0.70;;;;;;;;;;5039399;28;20670;-65
2023/12/20 01:28:08;;;;;;;0.73;0.73;;;;;;;;;;5039366;28;20213;-65
2023/12/20 01:30:36;;;;;;;0.73;0.73;;;;;;;;;;5039005;28;20848;-66
2023/12/20 01:33:04;;;;;;;0.90;0.90;;;;;;;;;;5039100;28;20683;-66
2023/12/20 01:35:31;;;;;;;0.90;0.90;;;;;;;;;;5038891;28;20206;-66
2023/12/20 01:37:58;;;;;;;0.70;0.70;;;;;;;;;;5038908;28;20540;-66
2023/12/20 01:40:25;;;;;;;0.95;0.95;;;;;;;;;;5039267;28;20280;-65
2023/12/20 01:43:01;;;;;;;0.75;0.75;;;;;;;;;;5039254;28;20564;-65
2023/12/20 01:45:29;;;;;;;0.95;0.95;;;;;;;;;;5039315;28;20205;-65
2023/12/20 01:47:57;;;;;;;0.90;0.90;;;;;;;;;;5039009;28;20271;-65
2023/12/20 01:50:25;;;;;;;0.68;0.68;;;;;;;;;;5039408;28;20210;-66
2023/12/20 01:52:53;;;;;;;0.70;0.70;;;;;;;;;;5038698;28;20206;-65
2023/12/20 01:55:21;;;;;;;0.70;0.70;;;;;;;;;;5038328;28;20661;-65
2023/12/20 01:57:49;;;;;;;0.77;0.75;;;;;;;;;;5038432;28;20237;-66
2023/12/20 02:00:20;;;;;;;0.65;0.65;;;;;;;;;;5038779;28;20670;-66
2023/12/20 02:02:49;;;;;;;0.80;0.70;;;;;;;;;;5038704;28;20244;-65
2023/12/20 02:05:17;;;;;;;0.70;0.70;;;;;;;;;;5038492;28;20664;-66
2023/12/20 02:07:45;;;;;;;0.70;0.70;;;;;;;;;;5038782;28;20207;-66
2023/12/20 02:10:12;;;;;;;0.68;0.68;;;;;;;;;;5037819;28;20245;-65
2023/12/20 02:12:40;;;;;;;0.70;0.70;;;;;;;;;;5038831;28;20229;-65
2023/12/20 02:15:08;;;;;;;0.65;0.65;;;;;;;;;;5038774;28;20206;-65
2023/12/20 02:17:38;;;;;;;0.60;0.60;;;;;;;;;;5038222;28;20244;-66
2023/12/20 02:20:06;;;;;;;0.60;0.60;;;;;;;;;;5038232;28;20621;-66
2023/12/20 02:22:35;;;;;;;0.70;0.70;;;;;;;;;;5038415;28;20252;-65
2023/12/20 02:25:03;;;;;;;0.90;0.60;;;;;;;;;;5038117;28;20450;-65
2023/12/20 02:27:31;;;;;;;0.63;0.63;;;;;;;;;;5038373;28;20271;-65
2023/12/20 02:29:59;;;;;;;0.73;0.73;;;;;;;;;;5037992;28;20201;-65
2023/12/20 02:32:27;;;;;;;0.60;0.60;;;;;;;;;;5038416;28;20221;-65
2023/12/20 02:34:54;;;;;;;0.50;0.50;;;;;;;;;;5038298;28;20220;-65
2023/12/20 02:37:22;;;;;;;0.60;0.60;;;;;;;;;;5038301;28;20543;-66
2023/12/20 02:39:51;;;;;;;0.70;0.70;;;;;;;;;;5038146;28;20260;-65
2023/12/20 02:42:19;;;;;;;0.70;0.70;;;;;;;;;;5037863;28;20236;-65
2023/12/20 02:44:47;;;;;;;0.65;0.65;;;;;;;;;;5030517;28;20205;-65
2023/12/20 02:47:14;;;;;;;0.55;0.55;;;;;;;;;;5038286;28;20229;-65
2023/12/20 02:49:42;;;;;;;0.60;0.60;;;;;;;;;;5037856;28;20206;-66
2023/12/20 02:52:10;;;;;;;0.60;0.60;;;;;;;;;;5037966;28;20536;-65
2023/12/20 02:54:37;;;;;;;0.50;0.50;;;;;;;;;;5037793;28;20216;-65
2023/12/20 02:57:06;;;;;;;0.57;0.57;;;;;;;;;;5037787;28;20233;-66
2023/12/20 02:59:34;;;;;;;0.57;0.57;;;;;;;;;;5049718;28;20215;-66
2023/12/20 03:02:02;;;;;;;0.68;0.68;;;;;;;;;;5077870;28;20224;-66
2023/12/20 03:04:29;;;;;;;0.70;0.70;;;;;;;;;;5077715;28;20340;-65
2023/12/20 03:06:57;;;;;;;0.60;0.60;;;;;;;;;;5077619;28;20215;-65
2023/12/20 03:09:25;;;;;;;0.60;0.60;;;;;;;;;;5077476;28;20306;-66
2023/12/20 03:11:53;;;;;;;0.50;0.50;;;;;;;;;;5077551;28;20214;-65
2023/12/20 03:14:22;;;;;;;0.50;0.50;;;;;;;;;;5077335;28;20204;-65
2023/12/20 03:16:51;;;;;;;0.40;0.40;;;;;;;;;;5077531;28;20208;-66
2023/12/20 03:19:18;;;;;;;0.50;0.50;;;;;;;;;;5077690;28;20234;-66
2023/12/20 03:21:46;;;;;;;0.32;0.32;;;;;;;;;;5076639;28;20228;-65
2023/12/20 03:24:14;;;;;;;0.50;0.50;;;;;;;;;;5077334;28;20269;-65
2023/12/20 03:26:41;;;;;;;0.55;0.55;;;;;;;;;;5077587;28;20254;-66
2023/12/20 03:29:09;;;;;;;0.60;0.60;;;;;;;;;;5077563;28;20212;-66
2023/12/20 03:31:38;;;;;;;0.40;0.40;;;;;;;;;;5077673;28;20261;-66
2023/12/20 03:34:06;;;;;;;0.55;0.55;;;;;;;;;;5077323;28;20211;-65
2023/12/20 03:36:33;;;;;;;1.13;0.57;;;;;;;;;;5077383;28;20304;-65
2023/12/20 03:39:01;;;;;;;0.45;0.45;;;;;;;;;;5077296;28;20204;-65
2023/12/20 03:41:28;;;;;;;0.50;0.50;;;;;;;;;;5077159;28;20224;-66
2023/12/20 03:43:56;;;;;;;0.60;0.60;;;;;;;;;;5077330;28;20295;-65
2023/12/20 03:46:24;;;;;;;0.60;0.60;;;;;;;;;;5077467;28;20208;-66
2023/12/20 03:48:53;;;;;;;0.50;0.50;;;;;;;;;;5077078;28;20204;-65
2023/12/20 03:51:21;;;;;;;0.50;0.50;;;;;;;;;;5077059;28;20298;-65
2023/12/20 03:53:49;;;;;;;0.57;0.40;;;;;;;;;;5077243;28;20303;-65
2023/12/20 03:56:16;;;;;;;0.40;0.30;;;;;;;;;;5076976;28;20215;-65
2023/12/20 03:58:44;;;;;;;0.40;0.40;;;;;;;;;;5076802;28;20232;-65
2023/12/20 04:01:12;;;;;;;0.50;0.50;;;;;;;;;;5076969;28;20625;-65
2023/12/20 04:03:40;;;;;;;0.40;0.40;;;;;;;;;;5077097;28;20212;-65
2023/12/20 04:06:09;;;;;;;0.40;0.40;;;;;;;;;;5077132;28;20219;-66
2023/12/20 04:08:37;;;;;;;0.45;0.45;;;;;;;;;;5076865;28;20204;-66
2023/12/20 04:11:05;;;;;;;0.50;0.50;;;;;;;;;;5076578;28;20472;-66
2023/12/20 04:13:33;;;;;;;0.50;0.50;;;;;;;;;;5076837;28;20204;-65
2023/12/20 04:16:00;;;;;;;0.50;0.50;;;;;;;;;;5076730;28;20491;-65
2023/12/20 04:18:28;;;;;;;0.50;0.50;;;;;;;;;;5076935;28;20211;-65
2023/12/20 04:20:56;;;;;;;0.45;0.45;;;;;;;;;;5076646;28;20212;-66
2023/12/20 04:23:25;;;;;;;0.40;0.40;;;;;;;;;;5076523;28;20286;-65
2023/12/20 04:25:52;;;;;;;0.50;0.50;;;;;;;;;;5076083;28;20735;-66
2023/12/20 04:28:20;;;;;;;0.50;0.50;;;;;;;;;;5075726;28;20212;-66
2023/12/20 04:30:48;;;;;;;1.10;0.40;;;;;;;;;;5075887;28;20200;-65
2023/12/20 04:33:15;;;;;;;0.40;0.40;;;;;;;;;;5078474;28;20205;-65
2023/12/20 04:35:45;;;;;;;0.50;0.40;;;;;;;;;;5079646;28;20211;-65
2023/12/20 04:38:13;;;;;;;0.40;0.40;;;;;;;;;;5080104;28;20237;-65
2023/12/20 04:40:42;;;;;;;0.40;0.40;;;;;;;;;;5080386;28;20265;-65
2023/12/20 04:43:10;;;;;;;0.40;0.40;;;;;;;;;;5079719;28;20231;-65
2023/12/20 04:45:38;;;;;;;0.85;0.40;;;;;;;;;;5079822;28;20266;-65
2023/12/20 04:48:06;;;;;;;0.35;0.35;;;;;;;;;;5079866;28;20239;-66
2023/12/20 04:50:33;;;;;;;0.43;0.43;;;;;;;;;;5080308;28;20212;-66
2023/12/20 04:53:00;;;;;;;0.40;0.40;;;;;;;;;;5079987;28;20200;-65
2023/12/20 04:55:28;;;;;;;0.40;0.40;;;;;;;;;;5080026;28;20219;-67
2023/12/20 04:57:57;;;;;;;0.40;0.40;;;;;;;;;;5079452;28;20236;-66
2023/12/20 05:00:24;;;;;;;0.40;0.40;;;;;;;;;;5080032;28;20544;-66
2023/12/20 05:02:52;;;;;;;0.45;0.40;;;;;;;;;;5079885;28;20235;-66
2023/12/20 05:05:19;;;;;;;0.40;0.40;;;;;;;;;;5079874;28;20204;-65
2023/12/20 05:07:46;;;;;;;0.30;0.30;;;;;;;;;;5079819;28;20204;-65
2023/12/20 05:10:14;;;;;;;0.40;0.40;;;;;;;;;;5079101;28;20204;-65
2023/12/20 05:12:41;;;;;;;0.35;0.35;;;;;;;;;;5079514;28;20250;-65
2023/12/20 05:15:10;;;;;;;0.30;0.30;;;;;;;;;;5079117;28;20502;-65
2023/12/20 05:17:38;;;;;;;0.40;0.40;;;;;;;;;;5079296;28;20285;-65
2023/12/20 05:20:05;;;;;;;0.30;0.30;;;;;;;;;;5079230;28;20204;-65
2023/12/20 05:22:33;;;;;;;0.30;0.30;;;;;;;;;;5079028;28;20239;-66
2023/12/20 05:25:00;;;;;;;0.95;0.50;;;;;;;;;;5079271;28;20211;-66
2023/12/20 05:27:28;;;;;;;0.40;0.40;;;;;;;;;;5078827;28;20204;-66
2023/12/20 05:29:57;;;;;;;0.50;0.30;;;;;;;;;;5078331;28;20204;-65
2023/12/20 05:32:26;;;;;;;0.32;0.32;;;;;;;;;;5078970;28;20200;-65
2023/12/20 05:34:53;;;;;;;0.35;0.30;;;;;;;;;;5078594;28;20274;-65
2023/12/20 05:37:21;;;;;;;0.30;0.30;;;;;;;;;;5078552;28;20648;-66
2023/12/20 05:39:48;;;;;;;0.32;0.32;;;;;;;;;;5078079;28;20251;-65
2023/12/20 05:42:15;;;;;;;0.30;0.30;;;;;;;;;;5078006;28;20228;-65
2023/12/20 05:44:43;;;;;;;0.40;0.40;;;;;;;;;;5077360;28;20722;-66
2023/12/20 05:47:10;;;;;;;0.35;0.35;;;;;;;;;;5078125;28;20211;-66
2023/12/20 05:49:39;;;;;;;0.28;0.28;;;;;;;;;;5077103;28;20196;-66
2023/12/20 05:52:07;;;;;;;0.40;0.40;;;;;;;;;;5077172;28;20211;-65
2023/12/20 05:54:34;;;;;;;0.38;0.38;;;;;;;;;;5077153;28;20204;-66
2023/12/20 05:57:01;;;;;;;0.40;0.40;;;;;;;;;;5076932;28;20208;-65
2023/12/20 05:59:28;;;;;;;0.77;0.40;;;;;;;;;;5077191;28;20298;-66
2023/12/20 06:01:56;;;;;;;0.30;0.30;;;;;;;;;;5076680;28;20531;-65
2023/12/20 06:04:23;;;;;;;0.30;0.30;;;;;;;;;;5076774;28;20216;-65
2023/12/20 06:06:52;;;;;;;0.30;0.30;;;;;;;;;;5076882;28;20204;-66
2023/12/20 06:09:19;;;;;;;0.40;0.40;;;;;;;;;;5076163;28;20208;-65
2023/12/20 06:11:47;;;;;;;0.40;0.40;;;;;;;;;;5076421;28;20192;-65
2023/12/20 06:14:14;;;;;;;0.40;0.40;;;;;;;;;;5075867;28;20211;-66
2023/12/20 06:16:41;;;;;;;0.40;0.40;;;;;;;;;;5076228;28;20212;-65
2023/12/20 06:19:09;;;;;;;0.38;0.38;;;;;;;;;;5076579;28;20212;-66
2023/12/20 06:21:36;;;;;;;0.40;0.40;;;;;;;;;;5075717;28;20208;-65
2023/12/20 06:24:05;;;;;;;0.35;0.30;;;;;;;;;;5076057;28;20230;-66
2023/12/20 06:26:32;;;;;;;0.40;0.32;;;;;;;;;;5076097;28;20215;-66
2023/12/20 06:29:00;;;;;;;0.30;0.30;;;;;;;;;;5076385;28;20574;-66
2023/12/20 06:31:28;;;;;;;0.57;0.30;;;;;;;;;;5076427;28;20311;-66
2023/12/20 06:33:57;;;;;;;0.30;0.30;;;;;;;;;;5075906;28;20200;-65
2023/12/20 06:36:25;;;;;;;0.30;0.30;;;;;;;;;;5075626;28;20254;-66
2023/12/20 06:38:52;;;;;;;0.30;0.30;;;;;;;;;;5075865;28;20239;-65
2023/12/20 06:41:21;;;;;;;0.30;0.30;;;;;;;;;;5076486;28;20204;-65
2023/12/20 06:43:48;;;;;;;0.40;0.40;;;;;;;;;;5076350;28;20255;-65
2023/12/20 06:46:16;;;;;;;0.43;0.43;;;;;;;;;;5075244;28;20215;-66
2023/12/20 06:48:43;;;;;;;0.30;0.30;;;;;;;;;;5076011;28;20619;-66
2023/12/20 06:51:13;;;;;;;0.25;0.25;;;;;;;;;;5075862;28;20231;-66
2023/12/20 06:53:40;;;;;;;0.40;0.40;;;;;;;;;;5075804;28;20213;-66
2023/12/20 06:56:08;;;;;;;0.30;0.30;;;;;;;;;;5075356;28;20208;-66
2023/12/20 06:58:38;;;;;;;0.30;0.30;;;;;;;;;;5076087;28;20255;-66
2023/12/20 07:01:05;;;;;;;0.25;0.25;;;;;;;;;;5075524;28;20204;-65
2023/12/20 07:03:32;;;;;;;0.30;0.22;;;;;;;;;;5075602;28;20255;-65
2023/12/20 07:06:00;;;;;;;0.57;0.30;;;;;;;;;;5075601;28;20196;-66
2023/12/20 07:08:27;;;;;;;0.30;0.30;;;;;;;;;;5075655;28;20204;-65
2023/12/20 07:10:54;;;;;;;0.38;0.35;;;;;;;;;;5076167;28;20290;-65
2023/12/20 07:13:23;;;;;;;0.30;0.30;;;;;;;;;;5075851;28;20200;-65
2023/12/20 07:15:51;;;;;;;0.30;0.30;;;;;;;;;;5074668;28;20236;-66
2023/12/20 07:18:19;;;;;;;0.30;0.30;;;;;;;;;;5076192;28;20609;-66
2023/12/20 07:20:46;;;;;;;0.40;0.40;;;;;;;;;;5075642;28;20204;-66
2023/12/20 07:23:14;;;;;;;0.30;0.30;;;;;;;;;;5075485;28;20224;-65
2023/12/20 07:25:41;;;;;;;0.38;0.35;;;;;;;;;;5075885;28;20600;-67
2023/12/20 07:28:09;;;;;;;0.30;0.30;;;;;;;;;;5076122;28;20204;-65
2023/12/20 07:30:36;;;;;;;0.32;0.32;;;;;;;;;;5076319;28;20205;-66
2023/12/20 07:33:07;;;;;;;0.38;0.38;;;;;;;;;;5075921;28;20261;-66
2023/12/20 07:35:35;;;;;;;0.32;0.32;;;;;;;;;;5076240;28;20246;-65
2023/12/20 07:38:02;;;;;;;0.43;0.43;;;;;;;;;;5076207;28;20208;-65
2023/12/20 07:40:30;;;;;;;0.30;0.30;;;;;;;;;;5076180;28;20235;-65
2023/12/20 07:42:58;;;;;;;0.30;0.30;;;;;;;;;;5075533;28;20232;-66
2023/12/20 07:45:25;;;;;;;0.40;0.40;;;;;;;;;;5075992;28;20212;-65
2023/12/20 07:47:53;;;;;;;0.30;0.30;;;;;;;;;;5075924;28;20475;-66
2023/12/20 07:50:22;;;;;;;0.40;0.40;;;;;;;;;;5075671;28;20257;-65
2023/12/20 07:52:49;;;;;;;0.35;0.35;;;;;;;;;;5074724;28;20200;-65
2023/12/20 07:55:17;;;;;;;0.30;0.30;;;;;;;;;;5075202;28;20208;-65
2023/12/20 07:57:44;;;;;;;0.30;0.30;;;;;;;;;;5074665;28;20232;-65
2023/12/20 08:00:12;;;;;;;0.30;0.30;;;;;;;;;;5076000;28;20247;-65
2023/12/20 08:02:39;;;;;;;0.30;0.30;;;;;;;;;;5074656;28;20239;-65
2023/12/20 08:05:07;;;;;;;0.40;0.30;;;;;;;;;;5075305;28;20495;-65
2023/12/20 08:07:37;;;;;;;0.40;0.40;;;;;;;;;;5076787;28;20517;-65
2023/12/20 08:10:04;;;;;;;0.40;0.40;;;;;;;;;;5079409;28;20219;-65
2023/12/20 08:12:32;;;;;;;0.63;0.40;;;;;;;;;;5078659;28;20208;-65
2023/12/20 08:14:59;;;;;;;0.30;0.30;;;;;;;;;;5079124;28;20290;-66
2023/12/20 08:17:26;;;;;;;0.30;0.30;;;;;;;;;;5077900;28;20215;-65
2023/12/20 08:19:54;;;;;;;0.30;0.30;;;;;;;;;;5078778;28;20249;-65
2023/12/20 08:22:21;;;;;;;0.55;0.55;;;;;;;;;;5077957;28;20224;-65
2023/12/20 08:24:50;;;;;;;0.30;0.30;;;;;;;;;;5078061;28;20207;-65
2023/12/20 08:27:17;;;;;;;0.30;0.30;;;;;;;;;;5077645;28;20216;-66
2023/12/20 08:29:45;;;;;;;0.30;0.30;;;;;;;;;;5079447;28;20204;-65
2023/12/20 08:32:13;;;;;;;0.30;0.30;;;;;;;;;;5078870;28;20247;-65
2023/12/20 08:34:40;;;;;;;0.30;0.30;;;;;;;;;;5078955;28;20590;-65
2023/12/20 08:37:07;;;;;;;0.30;0.30;;;;;;;;;;5078684;28;20211;-66
2023/12/20 08:39:35;;;;;;;0.40;0.40;;;;;;;;;;5078486;28;20521;-65
2023/12/20 08:42:03;;;;;;;0.30;0.30;;;;;;;;;;5079020;28;20204;-65
2023/12/20 08:44:31;;;;;;;0.30;0.30;;;;;;;;;;5078749;28;20208;-66
2023/12/20 08:46:58;;;;;;;0.40;0.40;;;;;;;;;;5078885;28;20215;-65
2023/12/20 08:49:26;;;;;;;0.30;0.30;;;;;;;;;;5078530;28;20215;-65
2023/12/20 08:51:53;;;;;;;0.35;0.30;;;;;;;;;;5077835;28;20211;-65
2023/12/20 08:54:20;;;;;;;0.47;0.40;;;;;;;;;;5077992;28;20590;-66
2023/12/20 08:56:48;;;;;;;0.30;0.30;;;;;;;;;;5077888;28;20212;-65
2023/12/20 08:59:18;;;;;;;0.40;0.30;;;;;;;;;;5077239;28;20251;-65
2023/12/20 09:01:47;;;;;;;0.22;0.22;;;;;;;;;;5077687;28;20206;-66
2023/12/20 09:04:15;;;;;;;0.40;0.40;;;;;;;;;;5077933;28;20224;-65
2023/12/20 09:06:42;;;;;;;0.40;0.40;;;;;;;;;;5077522;28;20204;-65
2023/12/20 09:09:13;;;;;;;0.43;0.40;;;;;;;;;;5078247;28;20282;-65
2023/12/20 09:11:40;;;;;;;0.40;0.40;;;;;;;;;;5077645;28;20246;-66
2023/12/20 09:14:08;;;;;;;0.77;0.40;;;;;;;;;;5077691;28;20211;-66
2023/12/20 09:16:36;;;;;;;0.30;0.30;;;;;;;;;;5077953;28;20566;-66
2023/12/20 09:19:04;;;;;;;0.40;0.40;;;;;;;;;;5078001;28;20204;-65
2023/12/20 09:21:31;;;;;;;0.60;0.40;;;;;;;;;;5078334;28;20212;-66
2023/12/20 09:23:58;;;;;;;0.40;0.40;;;;;;;;;;5078353;28;20224;-65
2023/12/20 09:26:26;;;;;;;0.70;0.50;;;;;;;;;;5078117;28;20208;-65
2023/12/20 09:28:53;;;;;;;0.95;0.50;;;;;;;;;;5078876;28;20211;-65
2023/12/20 09:31:21;;;;;;;1.45;0.52;;;;;;;;;;5077897;28;20215;-65
2023/12/20 09:33:49;;;;;;;1.38;0.60;;;;;;;;;;5077943;28;20315;-65
2023/12/20 09:36:16;;;;;;;0.50;0.40;;;;;;;;;;5078322;28;20243;-65
2023/12/20 09:38:44;;;;;;;1.77;0.60;;;;;;;;;;5076752;28;20215;-65
2023/12/20 09:41:11;;;;;;;1.23;0.75;;;;;;;;;;5077691;28;20204;-66
2023/12/20 09:43:39;;;;;;;0.60;0.60;;;;;;;;;;5077336;28;20219;-65
2023/12/20 09:46:08;;;;;;;0.98;0.68;;;;;;;;;;5077132;28;20602;-66
2023/12/20 09:48:35;;;;;;;1.58;0.75;;;;;;;;;;5077079;28;20255;-65
2023/12/20 09:51:04;;;;;;;1.65;0.70;;;;;;;;;;5078074;28;20240;-66
2023/12/20 09:53:32;;;;;;;0.70;0.70;;;;;;;;;;5076933;28;20208;-65
2023/12/20 09:56:01;;;;;;;1.48;0.70;;;;;;;;;;5077299;28;20208;-66
2023/12/20 09:58:28;;;;;;;1.23;0.80;;;;;;;;;;5076688;28;20328;-66
2023/12/20 10:00:56;;;;;;;2.05;0.50;;;;;;;;;;5076996;28;20683;-66
2023/12/20 10:03:26;;;;;;;0.75;0.68;;;;;;;;;;5076752;28;20220;-65
2023/12/20 10:05:55;;;;;;;1.13;0.70;;;;;;;;;;5077010;28;20205;-65
2023/12/20 10:08:25;;;;;;;0.68;0.63;;;;;;;;;;5076763;28;20204;-65
2023/12/20 10:10:53;;;;;;;1.17;0.70;;;;;;;;;;5076861;28;20205;-66
2023/12/20 10:13:20;;;;;;;0.80;0.75;;;;;;;;;;5077293;28;20624;-66
2023/12/20 10:15:47;;;;;;;1.02;0.80;;;;;;;;;;5077288;28;20211;-65
2023/12/20 10:18:15;;;;;;;0.70;0.70;;;;;;;;;;5076988;28;20211;-66
2023/12/20 10:20:43;;;;;;;0.70;0.63;;;;;;;;;;5076048;28;20204;-65
2023/12/20 10:23:11;;;;;;;1.88;0.88;;;;;;;;;;5076261;28;20225;-66
2023/12/20 10:25:39;;;;;;;0.75;0.75;;;;;;;;;;5075724;28;20232;-65
2023/12/20 10:28:14;;;;;;;0.70;0.70;;;;;;;;;;5075855;28;20212;-66
2023/12/20 10:30:41;;;;;;;0.90;0.80;;;;;;;;;;5075452;28;20203;-65
2023/12/20 10:33:09;;;;;;;0.80;0.80;;;;;;;;;;5076414;28;20200;-65
2023/12/20 10:35:37;;;;;;;0.73;0.73;;;;;;;;;;5075834;28;20236;-65
2023/12/20 10:38:05;;;;;;;1.73;1.10;;;;;;;;;;5075077;28;20204;-66
2023/12/20 10:40:33;;;;;;;1.20;0.70;;;;;;;;;;5073834;28;20266;-66
2023/12/20 10:43:02;;;;;;;0.98;0.75;;;;;;;;;;5075859;28;20570;-65
2023/12/20 10:45:30;;;;;;;1.52;0.88;;;;;;;;;;5075084;28;20212;-65
2023/12/20 10:47:59;;;;;;;1.00;0.90;;;;;;;;;;5074128;28;20212;-65
2023/12/20 10:50:27;;;;;;;0.98;0.85;;;;;;;;;;5074471;28;20208;-65
2023/12/20 10:52:55;;;;;;;0.80;0.80;;;;;;;;;;5074905;28;20212;-66
2023/12/20 10:55:23;;;;;;;0.90;0.82;;;;;;;;;;5082147;28;20238;-65
2023/12/20 10:57:51;;;;;;;0.90;0.80;;;;;;;;;;5095886;28;20235;-65
2023/12/20 11:00:20;;;;;;;1.27;1.00;;;;;;;;;;5095801;28;20214;-65
2023/12/20 11:02:51;;;;;;;1.10;0.80;;;;;;;;;;5095048;28;20486;-66
2023/12/20 11:05:24;;;;;;;0.98;0.90;;;;;;;;;;5095689;28;20550;-65
2023/12/20 11:07:56;;;;;;;1.00;0.90;;;;;;;;;;5096319;28;20218;-66
2023/12/20 11:10:26;;;;;;;0.98;0.90;;;;;;;;;;5095187;28;20203;-66
2023/12/20 11:12:55;;;;;;;1.02;0.93;;;;;;;;;;5095394;28;20706;-66
2023/12/20 11:15:24;;;;;;;1.05;0.93;;;;;;;;;;5096123;28;20218;-65
2023/12/20 11:17:57;;;;;;;1.08;0.85;;;;;;;;;;5094523;28;20204;-66
2023/12/20 11:20:24;;;;;;;1.17;1.05;;;;;;;;;;5094028;28;20211;-65
2023/12/20 11:22:56;;;;;;;1.02;0.85;;;;;;;;;;5094561;28;20218;-65
2023/12/20 11:25:24;;;;;;;3.10;0.90;;;;;;;;;;5094828;28;20211;-65
2023/12/20 11:28:06;;;;;;;1.13;1.02;;;;;;;;;;5094612;28;20199;-65
2023/12/20 11:30:44;;;;;;;1.00;0.90;;;;;;;;;;5094364;28;20226;-66
2023/12/20 11:33:11;;;;;;;2.03;0.93;;;;;;;;;;5094725;28;20549;-66
2023/12/20 11:35:39;;;;;;;1.25;1.08;;;;;;;;;;5095030;28;20215;-66
2023/12/20 11:38:09;;;;;;;0.80;0.80;;;;;;;;;;5094403;28;20226;-66
2023/12/20 11:40:36;;;;;;;1.10;1.00;;;;;;;;;;5094522;28;20592;-66
2023/12/20 11:43:04;;;;;;;1.13;0.75;;;;;;;;;;5096216;28;20207;-66
2023/12/20 11:45:32;;;;;;;0.98;0.98;;;;;;;;;;5098324;28;20195;-66
2023/12/20 11:48:00;;;;;;;1.10;1.00;;;;;;;;;;5098606;28;20211;-66
2023/12/20 11:50:28;;;;;;;1.10;1.00;;;;;;;;;;5098417;28;20199;-66
2023/12/20 11:52:56;;;;;;;1.38;0.80;;;;;;;;;;5098220;28;20202;-66
2023/12/20 11:55:23;;;;;;;2.13;1.08;;;;;;;;;;5098392;28;20435;-66
2023/12/20 11:57:51;;;;;;;1.10;0.95;;;;;;;;;;5098027;28;20239;-66
2023/12/20 12:00:19;;;;;;;1.00;0.90;;;;;;;;;;5098504;28;20195;-66
2023/12/20 12:02:57;;;;;;;0.80;0.80;;;;;;;;;;5098176;28;20200;-66
2023/12/20 12:05:26;;;;;;;2.03;0.98;;;;;;;;;;5098148;28;20253;-66
2023/12/20 12:07:53;;;;;;;1.05;0.90;;;;;;;;;;5097796;28;20214;-66
2023/12/20 12:10:22;;;;;;;1.35;0.95;;;;;;;;;;5097348;28;20203;-66
2023/12/20 12:12:49;;;;;;;1.70;1.00;;;;;;;;;;5096788;28;20670;-66
2023/12/20 12:15:17;;;;;;;1.10;1.00;;;;;;;;;;5097636;28;20203;-66
2023/12/20 12:17:44;;;;;;;1.30;1.00;;;;;;;;;;5097817;28;20231;-66
2023/12/20 12:20:12;;;;;;;1.10;0.90;;;;;;;;;;5097937;28;20207;-66
2023/12/20 12:22:41;;;;;;;1.00;0.90;;;;;;;;;;5098346;28;20577;-66
2023/12/20 12:25:12;;;;;;;1.58;1.00;;;;;;;;;;5097901;28;20289;-66
2023/12/20 12:27:41;;;;;;;2.50;0.93;;;;;;;;;;5097978;28;20199;-66
2023/12/20 12:30:12;;;;;;;1.40;1.30;;;;;;;;;;5098098;28;20742;-66
2023/12/20 12:32:40;;;;;;;0.90;0.90;;;;;;;;;;5097704;28;20203;-66
2023/12/20 12:35:08;;;;;;;0.90;0.85;;;;;;;;;;5098172;28;20234;-66
2023/12/20 12:37:36;;;;;;;1.38;0.80;;;;;;;;;;5098064;28;20534;-66
2023/12/20 12:40:07;;;;;;;1.20;0.90;;;;;;;;;;5097355;28;20204;-66
2023/12/20 12:42:34;;;;;;;1.13;0.70;;;;;;;;;;5098002;28;20195;-66
2023/12/20 12:45:02;;;;;;;1.15;1.00;;;;;;;;;;5098163;28;20230;-66
2023/12/20 12:47:29;;;;;;;1.13;0.90;;;;;;;;;;5096922;28;20511;-66
2023/12/20 12:49:56;;;;;;;2.33;1.00;;;;;;;;;;5097405;28;20203;-66
2023/12/20 12:52:24;;;;;;;1.02;1.00;;;;;;;;;;5097066;28;20195;-66
2023/12/20 12:54:52;;;;;;;0.98;0.85;;;;;;;;;;5096758;28;20210;-66
2023/12/20 12:57:21;;;;;;;2.53;1.02;;;;;;;;;;5096898;28;20206;-66
2023/12/20 12:59:48;;;;;;;0.80;0.80;;;;;;;;;;5097818;28;20211;-66
2023/12/20 13:02:15;;;;;;;1.77;0.85;;;;;;;;;;5097943;28;20218;-66
2023/12/20 13:04:43;;;;;;;1.00;0.90;;;;;;;;;;5097686;28;20219;-66
2023/12/20 13:07:11;;;;;;;1.08;1.00;;;;;;;;;;5097588;28;20200;-66
2023/12/20 13:09:38;;;;;;;1.05;0.90;;;;;;;;;;5097246;28;20207;-66
2023/12/20 13:12:07;;;;;;;0.80;0.80;;;;;;;;;;5097698;28;20204;-66
2023/12/20 13:14:36;;;;;;;1.05;0.73;;;;;;;;;;5097186;28;20573;-66
2023/12/20 13:17:04;;;;;;;1.10;0.88;;;;;;;;;;5096988;28;20243;-66
2023/12/20 13:19:32;;;;;;;0.80;0.80;;;;;;;;;;5097509;28;20204;-66
2023/12/20 13:21:59;;;;;;;1.02;0.80;;;;;;;;;;5096687;28;20211;-66
2023/12/20 13:24:26;;;;;;;1.10;1.00;;;;;;;;;;5096723;28;20238;-66
2023/12/20 13:26:54;;;;;;;1.50;0.85;;;;;;;;;;5097047;28;20206;-66
2023/12/20 13:29:21;;;;;;;0.90;0.90;;;;;;;;;;5097676;28;20507;-66
2023/12/20 13:31:50;;;;;;;1.88;1.00;;;;;;;;;;5096702;28;20204;-66
2023/12/20 13:34:19;;;;;;;0.88;0.88;;;;;;;;;;5096878;28;20306;-66
2023/12/20 13:36:47;;;;;;;0.70;0.70;;;;;;;;;;5097105;28;20211;-66
2023/12/20 13:39:14;;;;;;;1.05;0.80;;;;;;;;;;5095510;28;20239;-66
2023/12/20 13:41:42;;;;;;;1.20;0.80;;;;;;;;;;5096652;28;20206;-66
2023/12/20 13:44:09;;;;;;;0.70;0.70;;;;;;;;;;5096155;28;20511;-66
2023/12/20 13:46:37;;;;;;;0.90;0.90;;;;;;;;;;5096671;28;20208;-66
2023/12/20 13:49:06;;;;;;;1.30;0.77;;;;;;;;;;5095552;28;20720;-66
2023/12/20 13:51:34;;;;;;;0.90;0.90;;;;;;;;;;5095975;28;20210;-67
2023/12/20 13:54:01;;;;;;;1.45;0.80;;;;;;;;;;5096756;28;20200;-66
2023/12/20 13:56:28;;;;;;;1.15;0.80;;;;;;;;;;5096728;28;20596;-66
2023/12/20 13:58:55;;;;;;;0.80;0.77;;;;;;;;;;5095197;28;20243;-66
2023/12/20 14:01:23;;;;;;;1.05;0.80;;;;;;;;;;5095678;28;20802;-66
2023/12/20 14:03:50;;;;;;;0.98;0.85;;;;;;;;;;5096387;28;20222;-66
2023/12/20 14:06:21;;;;;;;0.90;0.70;;;;;;;;;;5094779;28;20820;-66
2023/12/20 14:08:49;;;;;;;0.98;0.88;;;;;;;;;;5095820;28;20634;-66
2023/12/20 14:11:17;;;;;;;1.00;0.88;;;;;;;;;;5095455;28;20268;-66
2023/12/20 14:13:44;;;;;;;1.33;0.80;;;;;;;;;;5096048;28;20577;-66
2023/12/20 14:16:12;;;;;;;0.77;0.77;;;;;;;;;;5095533;28;20632;-66
2023/12/20 14:18:40;;;;;;;1.38;0.88;;;;;;;;;;5095455;28;20264;-66
2023/12/20 14:21:07;;;;;;;1.00;0.90;;;;;;;;;;5095222;28;20478;-66
2023/12/20 14:23:36;;;;;;;0.90;0.75;;;;;;;;;;5094242;28;20207;-66
2023/12/20 14:26:03;;;;;;;1.35;0.90;;;;;;;;;;5095334;28;20732;-66
2023/12/20 14:28:31;;;;;;;1.27;0.80;;;;;;;;;;5095223;28;20218;-66
2023/12/20 14:30:58;;;;;;;1.13;0.80;;;;;;;;;;5095312;28;20199;-66
2023/12/20 14:33:26;;;;;;;1.02;0.70;;;;;;;;;;5094788;28;20203;-66
2023/12/20 14:35:53;;;;;;;0.80;0.80;;;;;;;;;;5095201;28;20230;-66
2023/12/20 14:38:20;;;;;;;1.17;0.80;;;;;;;;;;5095263;28;20199;-66
2023/12/20 14:40:50;;;;;;;1.13;0.73;;;;;;;;;;5095806;28;20556;-66
2023/12/20 14:43:17;;;;;;;0.73;0.63;;;;;;;;;;5095479;28;20495;-66
2023/12/20 14:45:45;;;;;;;1.20;0.85;;;;;;;;;;5095156;28;20620;-66
2023/12/20 14:48:12;;;;;;;1.50;0.75;;;;;;;;;;5095076;28;20207;-66